createdAt,value
2022-07-30T00:01:17.550Z,97282.75
2022-07-30T00:03:44.391Z,97281.91
2022-07-30T00:06:11.187Z,97288.19
2022-07-30T00:08:37.891Z,97276.81
2022-07-30T00:11:04.550Z,97283.56
2022-07-30T00:13:31.226Z,97280.34
2022-07-30T00:15:58.243Z,97277.78
2022-07-30T00:18:25.030Z,97277.16
2022-07-30T00:20:51.800Z,97274.72
2022-07-30T00:23:18.726Z,97269.41
2022-07-30T00:25:45.465Z,97268.44
2022-07-30T00:28:12.238Z,97272.69
2022-07-30T00:30:40.714Z,97268.34
2022-07-30T00:33:08.293Z,97264.47
2022-07-30T00:35:35.472Z,97266.09
2022-07-30T00:38:02.095Z,97271.53
2022-07-30T00:40:29.012Z,97273.09
2022-07-30T00:42:55.939Z,97275.47
2022-07-30T00:45:22.898Z,97271.66
2022-07-30T00:47:49.855Z,97270.94
2022-07-30T00:50:16.866Z,97269.38
2022-07-30T00:52:44.326Z,97271.28
2022-07-30T00:55:14.098Z,97264.25
2022-07-30T00:57:42.545Z,97272.78
2022-07-30T01:00:16.947Z,97272.94
2022-07-30T01:02:43.926Z,97275.09
2022-07-30T01:05:11.133Z,97275.09
2022-07-30T01:07:38.084Z,97274.59
2022-07-30T01:10:06.829Z,97266.19
2022-07-30T01:12:34.025Z,97265.19
2022-07-30T01:15:03.277Z,97255.19
2022-07-30T01:17:30.008Z,97251.91
2022-07-30T01:20:02.047Z,97254.53
2022-07-30T01:22:30.677Z,97247.06
2022-07-30T01:25:03.723Z,97255.03
2022-07-30T01:27:35.083Z,97254.53
2022-07-30T01:30:04.396Z,97243.09
2022-07-30T01:32:33.417Z,97250.06
2022-07-30T01:35:04.075Z,97249.13
2022-07-30T01:37:33.619Z,97252.53
2022-07-30T01:40:00.699Z,97245.59
2022-07-30T01:42:29.776Z,97250.94
2022-07-30T01:44:58.534Z,97260.13
2022-07-30T01:47:27.900Z,97253.28
2022-07-30T01:49:57.159Z,97249.94
2022-07-30T01:52:26.519Z,97236.88
2022-07-30T01:54:56.370Z,97240.78
2022-07-30T01:57:23.428Z,97242.69
2022-07-30T01:59:54.854Z,97242.59
2022-07-30T02:02:21.574Z,97243.47
2022-07-30T02:04:49.435Z,97249.75
2022-07-30T02:07:31.941Z,97245.41
2022-07-30T02:10:05.322Z,97230.66
2022-07-30T02:12:43.430Z,97234.63
2022-07-30T02:15:16.150Z,97241.44
2022-07-30T02:18:04.060Z,97225.53
2022-07-30T02:20:35.795Z,97229.72
2022-07-30T02:23:12.635Z,97239.66
2022-07-30T02:25:44.802Z,97243.16
2022-07-30T02:28:14.786Z,97249.03
2022-07-30T02:30:49.821Z,97258.19
2022-07-30T02:33:23.663Z,97270.50
2022-07-30T02:35:54.478Z,97278.75
2022-07-30T02:38:21.840Z,97280.63
2022-07-30T02:40:50.066Z,97289.13
2022-07-30T02:43:18.350Z,97288.22
2022-07-30T02:45:48.022Z,97273.78
2022-07-30T02:48:34.623Z,97285.56
2022-07-30T02:51:04.382Z,97291.34
2022-07-30T02:53:32.746Z,97300.19
2022-07-30T02:56:01.931Z,97301.28
2022-07-30T02:58:29.615Z,97308.31
2022-07-30T03:00:57.818Z,97309.16
2022-07-30T03:03:29.111Z,97311.78
2022-07-30T03:05:57.287Z,97302.09
2022-07-30T03:08:26.446Z,97309.16
2022-07-30T03:10:56.249Z,97308.34
2022-07-30T03:13:25.552Z,97309.28
2022-07-30T03:15:53.910Z,97308.06
2022-07-30T03:18:22.113Z,97300.03
2022-07-30T03:20:53.523Z,97306.72
2022-07-30T03:23:22.665Z,97310.78
2022-07-30T03:25:56.751Z,97311.56
2022-07-30T03:28:25.341Z,97309.63
2022-07-30T03:30:53.631Z,97301.75
2022-07-30T03:33:21.519Z,97304.78
2022-07-30T03:35:49.849Z,97303.91
2022-07-30T03:38:17.638Z,97308.66
2022-07-30T03:40:45.450Z,97315.88
2022-07-30T03:43:18.575Z,97317.28
2022-07-30T03:46:05.319Z,97324.78
2022-07-30T03:48:35.742Z,97325.69
2022-07-30T03:51:10.207Z,97323.13
2022-07-30T03:53:41.239Z,97316.13
2022-07-30T03:56:31.298Z,97317.81
2022-07-30T03:58:57.963Z,97325.91
2022-07-30T04:01:26.550Z,97335.09
2022-07-30T04:04:10.989Z,97332.44
2022-07-30T04:06:39.799Z,97336.81
2022-07-30T04:09:08.234Z,97335.00
2022-07-30T04:11:41.002Z,97337.13
2022-07-30T04:14:11.572Z,97336.25
2022-07-30T04:16:54.787Z,97342.50
2022-07-30T04:19:47.416Z,97354.78
2022-07-30T04:22:20.329Z,97355.88
2022-07-30T04:24:48.098Z,97357.19
2022-07-30T04:27:16.904Z,97365.09
2022-07-30T04:29:44.622Z,97372.78
2022-07-30T04:32:12.846Z,97371.56
2022-07-30T04:34:59.748Z,97365.72
2022-07-30T04:38:04.123Z,97369.88
2022-07-30T04:40:31.923Z,97362.56
2022-07-30T04:42:58.650Z,97366.13
2022-07-30T04:45:26.162Z,97372.94
2022-07-30T04:47:58.223Z,97373.28
2022-07-30T04:50:47.165Z,97374.53
2022-07-30T04:53:19.633Z,97382.19
2022-07-30T04:55:54.637Z,97378.81
2022-07-30T04:58:25.963Z,97379.25
2022-07-30T05:00:55.523Z,97385.19
2022-07-30T05:03:28.110Z,97394.84
2022-07-30T05:05:57.588Z,97389.91
2022-07-30T05:08:26.560Z,97380.91
2022-07-30T05:10:53.874Z,97381.13
2022-07-30T05:13:22.273Z,97387.75
2022-07-30T05:15:49.459Z,97390.38
2022-07-30T05:18:18.689Z,97390.38
2022-07-30T05:20:46.794Z,97394.28
2022-07-30T05:23:21.950Z,97391.47
2022-07-30T05:26:08.834Z,97395.19
2022-07-30T05:28:40.515Z,97393.03
2022-07-30T05:31:11.168Z,97388.69
2022-07-30T05:33:42.343Z,97386.47
2022-07-30T05:36:12.649Z,97386.06
2022-07-30T05:38:40.348Z,97395.72
2022-07-30T05:41:33.006Z,97396.97
2022-07-30T05:44:22.118Z,97399.84
2022-07-30T05:46:50.506Z,97399.47
2022-07-30T05:49:17.428Z,97404.50
2022-07-30T05:51:44.241Z,97404.75
2022-07-30T05:54:12.018Z,97401.63
2022-07-30T05:57:01.843Z,97409.91
2022-07-30T05:59:33.056Z,97415.16
2022-07-30T06:02:06.712Z,97408.44
2022-07-30T06:04:52.246Z,97412.94
2022-07-30T06:07:19.277Z,97423.47
2022-07-30T06:09:46.177Z,97425.16
2022-07-30T06:12:13.884Z,97419.69
2022-07-30T06:14:41.570Z,97419.84
2022-07-30T06:17:13.390Z,97423.25
2022-07-30T06:20:01.179Z,97422.56
2022-07-30T06:22:31.034Z,97433.91
2022-07-30T06:25:02.472Z,97430.00
2022-07-30T06:27:32.457Z,97432.13
2022-07-30T06:30:01.995Z,97434.63
2022-07-30T06:32:28.706Z,97437.34
2022-07-30T06:35:03.959Z,97435.03
2022-07-30T06:37:58.772Z,97440.31
2022-07-30T06:40:18.703Z,97445.34
2022-07-30T06:43:12.990Z,97438.66
2022-07-30T06:45:50.131Z,97447.41
2022-07-30T06:48:23.275Z,97448.25
2022-07-30T06:50:50.108Z,97442.38
2022-07-30T06:53:17.137Z,97442.72
2022-07-30T06:56:06.942Z,97443.63
2022-07-30T06:58:43.578Z,97442.91
2022-07-30T07:01:33.407Z,97444.78
2022-07-30T07:04:00.654Z,97439.84
2022-07-30T07:06:27.383Z,97443.22
2022-07-30T07:08:54.194Z,97442.78
2022-07-30T07:11:29.190Z,97441.56
2022-07-30T07:13:59.305Z,97443.66
2022-07-30T07:16:33.868Z,97443.22
2022-07-30T07:19:59.991Z,97444.66
2022-07-30T07:22:07.179Z,97447.34
2022-07-30T07:24:34.091Z,97452.25
2022-07-30T07:27:12.452Z,97449.84
2022-07-30T07:30:05.780Z,97445.47
2022-07-30T07:32:31.081Z,97453.59
2022-07-30T07:34:57.724Z,97448.84
2022-07-30T07:37:24.465Z,97443.81
2022-07-30T07:39:51.104Z,97448.78
2022-07-30T07:42:17.921Z,97442.59
2022-07-30T07:44:45.096Z,97438.47
2022-07-30T07:47:11.760Z,97442.16
2022-07-30T07:49:44.743Z,97443.06
2022-07-30T07:52:11.611Z,97439.34
2022-07-30T07:54:38.816Z,97443.03
2022-07-30T07:57:08.741Z,97444.69
2022-07-30T07:59:41.003Z,97437.06
2022-07-30T08:02:26.579Z,97447.41
2022-07-30T08:04:59.173Z,97447.31
2022-07-30T08:07:42.159Z,97451.69
2022-07-30T08:10:34.840Z,97453.09
2022-07-30T08:13:48.440Z,97454.34
2022-07-30T08:16:25.636Z,97460.78
2022-07-30T08:19:27.695Z,97465.13
2022-07-30T08:22:07.835Z,97459.19
2022-07-30T08:24:34.778Z,97464.59
2022-07-30T08:27:01.831Z,97464.63
2022-07-30T08:29:29.919Z,97466.88
2022-07-30T08:31:56.790Z,97475.94
2022-07-30T08:34:25.983Z,97465.28
2022-07-30T08:36:55.781Z,97472.34
2022-07-30T08:39:22.462Z,97463.50
2022-07-30T08:41:49.368Z,97462.34
2022-07-30T08:44:18.708Z,97466.06
2022-07-30T08:46:51.786Z,97457.63
2022-07-30T08:49:37.986Z,97460.16
2022-07-30T08:52:05.903Z,97459.44
2022-07-30T08:54:40.769Z,97465.00
2022-07-30T08:57:07.674Z,97460.81
2022-07-30T09:00:00.143Z,97465.50
2022-07-30T09:02:30.198Z,97459.03
2022-07-30T09:05:01.743Z,97458.34
2022-07-30T09:07:28.925Z,97459.03
2022-07-30T09:09:57.683Z,97451.81
2022-07-30T09:12:32.499Z,97457.88
2022-07-30T09:15:26.582Z,97458.06
2022-07-30T09:18:01.500Z,97461.84
2022-07-30T09:20:34.766Z,97463.00
2022-07-30T09:23:06.089Z,97459.16
2022-07-30T09:25:51.999Z,97460.09
2022-07-30T09:28:44.943Z,97456.28
2022-07-30T09:31:14.861Z,97460.25
2022-07-30T09:33:59.996Z,97453.34
2022-07-30T09:36:45.281Z,97458.84
2022-07-30T09:39:56.636Z,97449.03
2022-07-30T09:42:39.663Z,97450.38
2022-07-30T09:45:14.166Z,97454.69
2022-07-30T09:47:49.294Z,97455.31
2022-07-30T09:50:30.310Z,97451.47
2022-07-30T09:53:08.008Z,97452.63
2022-07-30T09:55:41.136Z,97445.22
2022-07-30T09:58:12.947Z,97455.56
2022-07-30T10:00:48.803Z,97447.53
2022-07-30T10:03:46.720Z,97447.28
2022-07-30T10:06:38.203Z,97453.34
2022-07-30T10:09:37.449Z,97455.66
2022-07-30T10:12:10.627Z,97453.25
2022-07-30T10:14:43.897Z,97452.13
2022-07-30T10:17:13.130Z,97456.09
2022-07-30T10:19:42.224Z,97452.16
2022-07-30T10:22:28.576Z,97457.34
2022-07-30T10:25:22.891Z,97451.16
2022-07-30T10:28:09.345Z,97455.97
2022-07-30T10:30:36.998Z,97445.44
2022-07-30T10:33:04.466Z,97443.03
2022-07-30T10:35:38.187Z,97441.41
2022-07-30T10:38:13.686Z,97441.19
2022-07-30T10:40:54.199Z,97445.00
2022-07-30T10:43:35.786Z,97445.00
2022-07-30T10:46:22.891Z,97448.94
2022-07-30T10:48:50.782Z,97437.16
2022-07-30T10:51:25.531Z,97442.16
2022-07-30T10:54:01.231Z,97443.31
2022-07-30T10:56:27.994Z,97433.06
2022-07-30T10:59:11.197Z,97440.06
2022-07-30T11:01:48.733Z,97439.53
2022-07-30T11:04:20.466Z,97446.53
2022-07-30T11:06:48.245Z,97451.31
2022-07-30T11:09:41.001Z,97445.84
2022-07-30T11:12:16.292Z,97436.88
2022-07-30T11:14:46.145Z,97439.28
2022-07-30T11:17:19.134Z,97432.94
2022-07-30T11:20:11.723Z,97441.19
2022-07-30T11:22:44.910Z,97435.19
2022-07-30T11:25:27.443Z,97448.25
2022-07-30T11:28:46.103Z,97442.59
2022-07-30T11:31:56.626Z,97442.16
2022-07-30T11:34:24.058Z,97440.38
2022-07-30T11:37:18.816Z,97442.56
2022-07-30T11:39:55.257Z,97446.44
2022-07-30T11:42:28.992Z,97441.31
2022-07-30T11:45:23.167Z,97436.16
2022-07-30T11:47:55.773Z,97432.97
2022-07-30T11:50:33.621Z,97432.72
2022-07-30T11:53:15.994Z,97431.38
2022-07-30T11:55:47.659Z,97430.66
2022-07-30T11:58:33.073Z,97434.00
2022-07-30T12:01:02.503Z,97439.63
2022-07-30T12:03:41.322Z,97428.28
2022-07-30T12:06:17.875Z,97429.47
2022-07-30T12:08:46.825Z,97423.88
2022-07-30T12:11:13.687Z,97424.34
2022-07-30T12:13:46.184Z,97416.88
2022-07-30T12:16:17.721Z,97418.31
2022-07-30T12:18:45.925Z,97420.63
2022-07-30T12:21:16.596Z,97418.25
2022-07-30T12:23:59.444Z,97420.00
2022-07-30T12:26:35.743Z,97416.19
2022-07-30T12:29:05.805Z,97415.19
2022-07-30T12:31:38.444Z,97410.81
2022-07-30T12:34:27.661Z,97411.59
2022-07-30T12:36:54.972Z,97408.50
2022-07-30T12:39:27.848Z,97413.03
2022-07-30T12:41:58.111Z,97406.06
2022-07-30T12:44:39.202Z,97406.09
2022-07-30T12:47:19.090Z,97401.47
2022-07-30T12:49:49.744Z,97393.50
2022-07-30T12:52:34.636Z,97398.50
2022-07-30T12:55:10.466Z,97399.19
2022-07-30T12:58:01.700Z,97387.38
2022-07-30T13:00:54.859Z,97397.34
2022-07-30T13:03:23.563Z,97391.78
2022-07-30T13:05:52.066Z,97386.91
2022-07-30T13:08:45.191Z,97388.56
2022-07-30T13:11:12.314Z,97386.19
2022-07-30T13:13:39.541Z,97382.59
2022-07-30T13:16:07.641Z,97380.41
2022-07-30T13:18:35.804Z,97385.31
2022-07-30T13:21:04.312Z,97373.44
2022-07-30T13:23:31.359Z,97363.50
2022-07-30T13:25:58.444Z,97358.22
2022-07-30T13:28:25.490Z,97359.84
2022-07-30T13:30:52.516Z,97361.47
2022-07-30T13:33:19.209Z,97353.84
2022-07-30T13:35:45.835Z,97345.41
2022-07-30T13:38:13.572Z,97349.56
2022-07-30T13:40:41.371Z,97359.06
2022-07-30T13:43:08.364Z,97346.44
2022-07-30T13:45:35.781Z,97340.34
2022-07-30T13:48:03.864Z,97344.22
2022-07-30T13:50:30.891Z,97335.88
2022-07-30T13:53:01.779Z,97336.75
2022-07-30T13:55:29.371Z,97333.97
2022-07-30T13:57:56.608Z,97329.28
2022-07-30T14:00:23.429Z,97336.09
2022-07-30T14:02:50.630Z,97331.44
2022-07-30T14:05:17.662Z,97340.78
2022-07-30T14:07:44.372Z,97329.97
2022-07-30T14:10:11.024Z,97323.53
2022-07-30T14:12:37.949Z,97329.69
2022-07-30T14:15:05.098Z,97325.91
2022-07-30T14:17:31.953Z,97325.41
2022-07-30T14:19:59.026Z,97321.69
2022-07-30T14:22:25.641Z,97327.34
2022-07-30T14:24:52.324Z,97329.69
2022-07-30T14:27:20.494Z,97325.16
2022-07-30T14:29:47.310Z,97326.59
2022-07-30T14:32:14.340Z,97321.75
2022-07-30T14:34:41.355Z,97327.09
2022-07-30T14:37:16.079Z,97324.06
2022-07-30T14:39:42.904Z,97330.06
2022-07-30T14:42:09.598Z,97329.47
2022-07-30T14:44:36.263Z,97323.34
2022-07-30T14:47:03.429Z,97331.09
2022-07-30T14:49:30.661Z,97320.56
2022-07-30T14:51:57.427Z,97328.00
2022-07-30T14:54:24.173Z,97315.81
2022-07-30T14:56:54.877Z,97315.78
2022-07-30T14:59:25.318Z,97321.09
2022-07-30T15:01:52.647Z,97326.56
2022-07-30T15:04:19.463Z,97319.41
2022-07-30T15:06:46.388Z,97323.31
2022-07-30T15:09:13.325Z,97325.84
2022-07-30T15:12:07.999Z,97315.59
2022-07-30T15:14:27.075Z,97322.31
2022-07-30T15:16:56.766Z,97323.19
2022-07-30T15:19:25.478Z,97322.88
2022-07-30T15:21:52.191Z,97324.16
2022-07-30T15:24:18.849Z,97323.72
2022-07-30T15:26:45.529Z,97334.25
2022-07-30T15:29:13.485Z,97331.19
2022-07-30T15:31:40.285Z,97330.25
2022-07-30T15:34:10.849Z,97326.53
2022-07-30T15:36:41.837Z,97333.47
2022-07-30T15:39:08.470Z,97331.25
2022-07-30T15:41:36.932Z,97320.25
2022-07-30T15:44:04.107Z,97317.59
2022-07-30T15:46:30.889Z,97325.41
2022-07-30T15:48:57.585Z,97329.84
2022-07-30T15:51:24.448Z,97324.94
2022-07-30T15:53:51.133Z,97325.44
2022-07-30T15:56:18.703Z,97328.78
2022-07-30T15:58:45.338Z,97337.63
2022-07-30T16:01:12.159Z,97331.47
2022-07-30T16:03:38.876Z,97332.38
2022-07-30T16:06:05.647Z,97337.69
2022-07-30T16:08:32.413Z,97338.84
2022-07-30T16:10:59.170Z,97359.94
2022-07-30T16:13:25.826Z,97346.69
2022-07-30T16:15:52.526Z,97348.19
2022-07-30T16:18:19.179Z,97345.94
2022-07-30T16:20:45.885Z,97349.81
2022-07-30T16:23:15.989Z,97344.31
2022-07-30T16:25:46.313Z,97348.34
2022-07-30T16:28:13.164Z,97351.03
2022-07-30T16:30:49.029Z,97348.31
2022-07-30T16:33:19.553Z,97359.25
2022-07-30T16:35:49.330Z,97354.41
2022-07-30T16:38:19.714Z,97361.72
2022-07-30T16:40:46.607Z,97366.91
2022-07-30T16:43:16.317Z,97360.34
2022-07-30T16:45:46.157Z,97359.09
2022-07-30T16:48:13.807Z,97354.31
2022-07-30T16:50:41.573Z,97357.97
2022-07-30T16:53:13.510Z,97366.50
2022-07-30T16:55:41.189Z,97369.09
2022-07-30T16:58:07.839Z,97374.06
2022-07-30T17:00:34.729Z,97366.88
2022-07-30T17:03:01.508Z,97370.41
2022-07-30T17:05:28.319Z,97376.03
2022-07-30T17:07:55.139Z,97376.63
2022-07-30T17:10:24.210Z,97375.81
2022-07-30T17:12:53.152Z,97376.53
2022-07-30T17:15:19.994Z,97390.69
2022-07-30T17:17:46.639Z,97383.66
2022-07-30T17:20:14.516Z,97384.13
2022-07-30T17:22:43.084Z,97395.53
2022-07-30T17:25:10.119Z,97396.25
2022-07-30T17:27:37.414Z,97395.78
2022-07-30T17:30:05.898Z,97403.88
2022-07-30T17:32:32.734Z,97395.69
2022-07-30T17:34:59.529Z,97405.53
2022-07-30T17:37:26.257Z,97402.50
2022-07-30T17:40:22.955Z,97412.09
2022-07-30T17:42:43.852Z,97418.09
2022-07-30T17:45:12.024Z,97421.91
2022-07-30T17:47:38.922Z,97423.00
2022-07-30T17:50:06.729Z,97426.72
2022-07-30T17:52:34.047Z,97440.75
2022-07-30T17:55:01.103Z,97444.72
2022-07-30T17:57:28.078Z,97453.16
2022-07-30T17:59:54.737Z,97455.00
2022-07-30T18:02:27.526Z,97458.88
2022-07-30T18:04:56.469Z,97457.91
2022-07-30T18:07:23.415Z,97451.47
2022-07-30T18:09:50.038Z,97457.59
2022-07-30T18:12:16.806Z,97467.78
2022-07-30T18:14:43.484Z,97479.03
2022-07-30T18:17:14.204Z,97478.06
2022-07-30T18:19:41.218Z,97474.63
2022-07-30T18:22:08.034Z,97467.06
2022-07-30T18:24:34.695Z,97478.06
2022-07-30T18:27:07.601Z,97477.50
2022-07-30T18:29:34.305Z,97484.69
2022-07-30T18:32:01.300Z,97486.56
2022-07-30T18:34:28.258Z,97483.34
2022-07-30T18:36:55.030Z,97482.06
2022-07-30T18:39:21.672Z,97486.88
2022-07-30T18:41:48.444Z,97478.97
2022-07-30T18:44:15.088Z,97487.72
2022-07-30T18:46:41.894Z,97488.03
2022-07-30T18:49:33.911Z,97490.88
2022-07-30T18:51:55.491Z,97492.75
2022-07-30T18:54:23.383Z,97491.06
2022-07-30T18:56:50.154Z,97488.50
2022-07-30T18:59:16.818Z,97494.16
2022-07-30T19:01:43.994Z,97489.16
2022-07-30T19:04:10.831Z,97494.06
2022-07-30T19:06:38.062Z,97507.72
2022-07-30T19:09:05.524Z,97509.97
2022-07-30T19:11:32.642Z,97510.31
2022-07-30T19:13:59.528Z,97501.34
2022-07-30T19:16:26.157Z,97511.47
2022-07-30T19:18:52.789Z,97503.28
2022-07-30T19:21:19.502Z,97514.72
2022-07-30T19:23:46.165Z,97508.59
2022-07-30T19:26:14.459Z,97504.53
2022-07-30T19:28:41.095Z,97509.78
2022-07-30T19:31:07.763Z,97508.91
2022-07-30T19:33:34.701Z,97517.19
2022-07-30T19:36:02.868Z,97520.53
2022-07-30T19:38:29.515Z,97525.81
2022-07-30T19:40:57.100Z,97523.53
2022-07-30T19:43:24.624Z,97521.47
2022-07-30T19:45:51.592Z,97528.69
2022-07-30T19:48:29.292Z,97523.06
2022-07-30T19:50:59.513Z,97519.53
2022-07-30T19:53:28.059Z,97518.75
2022-07-30T19:56:01.670Z,97521.50
2022-07-30T19:58:28.572Z,97527.72
2022-07-30T20:00:55.194Z,97526.78
2022-07-30T20:03:26.282Z,97518.88
2022-07-30T20:05:58.729Z,97519.06
2022-07-30T20:08:25.485Z,97514.84
2022-07-30T20:10:52.604Z,97520.72
2022-07-30T20:13:19.553Z,97522.56
2022-07-30T20:15:46.539Z,97517.47
2022-07-30T20:18:13.452Z,97520.91
2022-07-30T20:20:41.392Z,97510.53
2022-07-30T20:23:08.274Z,97517.44
2022-07-30T20:25:37.285Z,97512.69
2022-07-30T20:28:05.215Z,97521.59
2022-07-30T20:30:32.822Z,97516.13
2022-07-30T20:32:59.581Z,97504.03
2022-07-30T20:35:27.766Z,97505.78
2022-07-30T20:37:56.601Z,97507.63
2022-07-30T20:43:11.922Z,97495.72
2022-07-30T20:45:41.406Z,97492.88
2022-07-30T20:48:08.579Z,97496.03
2022-07-30T20:50:46.037Z,97496.72
2022-07-30T20:53:16.215Z,97503.84
2022-07-30T20:55:42.883Z,97511.00
2022-07-30T20:58:16.734Z,97513.41
2022-07-30T21:00:49.598Z,97503.13
2022-07-30T21:03:18.077Z,97516.13
2022-07-30T21:05:48.267Z,97519.44
2022-07-30T21:08:18.103Z,97520.22
2022-07-30T21:10:46.791Z,97518.44
2022-07-30T21:13:13.818Z,97513.41
2022-07-30T21:15:45.512Z,97515.53
2022-07-30T21:18:27.344Z,97514.97
2022-07-30T21:20:53.959Z,97524.72
2022-07-30T21:23:24.766Z,97531.25
2022-07-30T21:26:00.785Z,97523.91
2022-07-30T21:28:35.165Z,97521.31
2022-07-30T21:31:03.452Z,97527.16
2022-07-30T21:33:31.693Z,97531.44
2022-07-30T21:35:59.409Z,97521.75
2022-07-30T21:38:30.441Z,97520.03
2022-07-30T21:40:58.076Z,97530.31
2022-07-30T21:43:29.609Z,97536.84
2022-07-30T21:45:57.030Z,97535.00
2022-07-30T21:48:28.403Z,97535.56
2022-07-30T21:50:56.140Z,97529.78
2022-07-30T21:53:29.557Z,97530.72
2022-07-30T21:56:10.618Z,97532.88
2022-07-30T21:58:39.189Z,97524.19
2022-07-30T22:01:17.703Z,97523.16
2022-07-30T22:04:04.729Z,97518.81
2022-07-30T22:06:38.347Z,97513.19
2022-07-30T22:09:18.915Z,97520.97
2022-07-30T22:11:55.522Z,97515.06
2022-07-30T22:14:22.671Z,97522.19
2022-07-30T22:16:52.353Z,97523.47
2022-07-30T22:19:21.671Z,97526.19
2022-07-30T22:21:49.184Z,97524.31
2022-07-30T22:24:28.788Z,97523.91
2022-07-30T22:27:01.698Z,97512.53
2022-07-30T22:29:38.156Z,97509.63
2022-07-30T22:32:06.632Z,97518.19
2022-07-30T22:34:34.533Z,97516.53
2022-07-30T22:37:01.246Z,97518.84
2022-07-30T22:39:31.511Z,97516.31
2022-07-30T22:41:58.528Z,97513.38
2022-07-30T22:44:27.745Z,97523.47
2022-07-30T22:46:56.270Z,97515.47
2022-07-30T22:49:43.639Z,97507.72
2022-07-30T22:52:19.536Z,97512.16
2022-07-30T22:54:50.978Z,97520.94
2022-07-30T22:57:17.687Z,97516.31
2022-07-30T22:59:58.171Z,97516.31
2022-07-30T23:02:25.529Z,97528.06
2022-07-30T23:04:56.276Z,97530.19
2022-07-30T23:07:23.579Z,97524.28
2022-07-30T23:10:03.230Z,97519.69
2022-07-30T23:12:18.317Z,97505.03
2022-07-30T23:12:35.599Z,97515.28
2022-07-30T23:15:03.209Z,97515.06
2022-07-30T23:17:29.862Z,97512.53
2022-07-30T23:19:56.434Z,97509.16
2022-07-30T23:22:23.094Z,97506.66
2022-07-30T23:24:51.388Z,97504.56
2022-07-30T23:27:18.023Z,97503.72
2022-07-30T23:29:44.646Z,97515.47
2022-07-30T23:32:11.397Z,97509.19
2022-07-30T23:34:38.186Z,97506.69
2022-07-30T23:37:06.052Z,97510.66
2022-07-30T23:39:33.011Z,97507.50
2022-07-30T23:41:59.649Z,97507.28
2022-07-30T23:44:26.376Z,97512.31
2022-07-30T23:46:53.017Z,97510.44
2022-07-30T23:49:19.770Z,97504.97
2022-07-30T23:51:46.378Z,97502.88
2022-07-30T23:54:12.996Z,97512.50
2022-07-30T23:56:40.033Z,97505.16
2022-07-30T23:59:06.674Z,97495.84
